sensor_id;sensor_type;location;lat;lon;timestamp;temperature;humidity
4374;DHT22;2201;51.100;6.814;2023-02-12T00:00:04;7.60;98.20
4374;DHT22;2201;51.100;6.814;2023-02-12T00:02:32;7.60;98.20
4374;DHT22;2201;51.100;6.814;2023-02-12T00:04:59;7.60;98.20
4374;DHT22;2201;51.100;6.814;2023-02-12T00:07:29;7.60;98.20
4374;DHT22;2201;51.100;6.814;2023-02-12T00:09:57;7.60;98.20
4374;DHT22;2201;51.100;6.814;2023-02-12T00:12:24;7.60;98.20
4374;DHT22;2201;51.100;6.814;2023-02-12T00:14:51;7.60;98.20
4374;DHT22;2201;51.100;6.814;2023-02-12T00:17:18;7.60;98.20
4374;DHT22;2201;51.100;6.814;2023-02-12T00:19:46;7.60;98.20
4374;DHT22;2201;51.100;6.814;2023-02-12T00:22:13;7.60;98.20
4374;DHT22;2201;51.100;6.814;2023-02-12T00:24:40;7.60;98.20
4374;DHT22;2201;51.100;6.814;2023-02-12T00:27:08;7.60;98.20
4374;DHT22;2201;51.100;6.814;2023-02-12T00:29:36;7.60;98.20
4374;DHT22;2201;51.100;6.814;2023-02-12T00:32:03;7.60;98.20
4374;DHT22;2201;51.100;6.814;2023-02-12T00:34:31;7.60;98.20
4374;DHT22;2201;51.100;6.814;2023-02-12T00:36:58;7.50;98.20
4374;DHT22;2201;51.100;6.814;2023-02-12T00:39:25;7.50;98.20
4374;DHT22;2201;51.100;6.814;2023-02-12T00:41:52;7.60;98.20
4374;DHT22;2201;51.100;6.814;2023-02-12T00:44:20;7.50;98.20
4374;DHT22;2201;51.100;6.814;2023-02-12T00:46:47;7.60;98.20
4374;DHT22;2201;51.100;6.814;2023-02-12T00:49:14;7.50;98.20
4374;DHT22;2201;51.100;6.814;2023-02-12T00:51:43;7.50;98.20
4374;DHT22;2201;51.100;6.814;2023-02-12T00:54:10;7.50;98.20
4374;DHT22;2201;51.100;6.814;2023-02-12T00:56:37;7.50;98.20
4374;DHT22;2201;51.100;6.814;2023-02-12T00:59:04;7.50;98.20
4374;DHT22;2201;51.100;6.814;2023-02-12T01:01:32;7.50;98.20
4374;DHT22;2201;51.100;6.814;2023-02-12T01:04:00;7.50;98.20
4374;DHT22;2201;51.100;6.814;2023-02-12T01:06:26;7.50;98.20
4374;DHT22;2201;51.100;6.814;2023-02-12T01:08:53;7.50;98.20
4374;DHT22;2201;51.100;6.814;2023-02-12T01:11:20;7.50;98.20
4374;DHT22;2201;51.100;6.814;2023-02-12T01:13:47;7.50;98.20
4374;DHT22;2201;51.100;6.814;2023-02-12T01:16:16;7.50;98.20
4374;DHT22;2201;51.100;6.814;2023-02-12T01:18:46;7.40;98.20
4374;DHT22;2201;51.100;6.814;2023-02-12T01:21:14;7.40;98.20
4374;DHT22;2201;51.100;6.814;2023-02-12T01:23:42;7.40;98.20
4374;DHT22;2201;51.100;6.814;2023-02-12T01:26:10;7.40;98.20
4374;DHT22;2201;51.100;6.814;2023-02-12T01:28:38;7.40;98.20
4374;DHT22;2201;51.100;6.814;2023-02-12T01:34:13;7.40;98.20
4374;DHT22;2201;51.100;6.814;2023-02-12T01:36:41;7.40;98.20
4374;DHT22;2201;51.100;6.814;2023-02-12T01:39:09;7.30;98.20
4374;DHT22;2201;51.100;6.814;2023-02-12T01:41:40;7.30;98.20
4374;DHT22;2201;51.100;6.814;2023-02-12T01:44:12;7.30;98.20
4374;DHT22;2201;51.100;6.814;2023-02-12T01:46:40;7.30;98.20
4374;DHT22;2201;51.100;6.814;2023-02-12T01:49:13;7.30;98.20
4374;DHT22;2201;51.100;6.814;2023-02-12T01:51:43;7.30;98.20
4374;DHT22;2201;51.100;6.814;2023-02-12T01:54:12;7.30;98.20
4374;DHT22;2201;51.100;6.814;2023-02-12T01:56:41;7.30;98.20
4374;DHT22;2201;51.100;6.814;2023-02-12T01:59:09;7.30;98.20
4374;DHT22;2201;51.100;6.814;2023-02-12T02:01:37;7.30;98.20
4374;DHT22;2201;51.100;6.814;2023-02-12T02:04:08;7.30;98.20
4374;DHT22;2201;51.100;6.814;2023-02-12T02:06:40;7.30;98.20
4374;DHT22;2201;51.100;6.814;2023-02-12T02:09:08;7.30;98.20
4374;DHT22;2201;51.100;6.814;2023-02-12T02:11:35;7.30;98.20
4374;DHT22;2201;51.100;6.814;2023-02-12T02:14:20;7.20;98.20
4374;DHT22;2201;51.100;6.814;2023-02-12T02:17:29;7.20;98.20
4374;DHT22;2201;51.100;6.814;2023-02-12T02:20:35;7.20;98.20
4374;DHT22;2201;51.100;6.814;2023-02-12T02:23:32;7.20;98.20
4374;DHT22;2201;51.100;6.814;2023-02-12T02:29:18;7.30;98.20
4374;DHT22;2201;51.100;6.814;2023-02-12T02:31:53;7.30;98.20
4374;DHT22;2201;51.100;6.814;2023-02-12T02:34:28;7.20;98.20
4374;DHT22;2201;51.100;6.814;2023-02-12T02:37:07;7.30;98.20
4374;DHT22;2201;51.100;6.814;2023-02-12T02:39:42;7.20;98.20
4374;DHT22;2201;51.100;6.814;2023-02-12T02:42:15;7.20;98.20
4374;DHT22;2201;51.100;6.814;2023-02-12T02:44:47;7.20;98.20
4374;DHT22;2201;51.100;6.814;2023-02-12T02:47:21;7.20;98.20
4374;DHT22;2201;51.100;6.814;2023-02-12T02:49:52;7.30;98.20
4374;DHT22;2201;51.100;6.814;2023-02-12T02:52:23;7.20;98.20
4374;DHT22;2201;51.100;6.814;2023-02-12T02:54:53;7.20;98.20
4374;DHT22;2201;51.100;6.814;2023-02-12T02:57:25;7.20;98.20
4374;DHT22;2201;51.100;6.814;2023-02-12T02:59:55;7.20;98.20
4374;DHT22;2201;51.100;6.814;2023-02-12T03:02:32;7.20;98.20
4374;DHT22;2201;51.100;6.814;2023-02-12T03:05:03;7.20;98.20
4374;DHT22;2201;51.100;6.814;2023-02-12T03:07:35;7.20;98.20
4374;DHT22;2201;51.100;6.814;2023-02-12T03:10:09;7.20;98.20
4374;DHT22;2201;51.100;6.814;2023-02-12T03:12:42;7.20;98.20
4374;DHT22;2201;51.100;6.814;2023-02-12T03:15:13;7.20;98.20
4374;DHT22;2201;51.100;6.814;2023-02-12T03:17:47;7.20;98.20
4374;DHT22;2201;51.100;6.814;2023-02-12T03:20:18;7.20;98.20
4374;DHT22;2201;51.100;6.814;2023-02-12T03:22:49;7.20;98.20
4374;DHT22;2201;51.100;6.814;2023-02-12T03:25:22;7.20;98.20
4374;DHT22;2201;51.100;6.814;2023-02-12T03:27:57;7.20;98.20
4374;DHT22;2201;51.100;6.814;2023-02-12T03:30:35;7.20;98.20
4374;DHT22;2201;51.100;6.814;2023-02-12T03:33:13;7.20;98.20
4374;DHT22;2201;51.100;6.814;2023-02-12T03:35:46;7.20;98.20
4374;DHT22;2201;51.100;6.814;2023-02-12T03:38:25;7.20;98.20
4374;DHT22;2201;51.100;6.814;2023-02-12T03:40:59;7.20;98.20
4374;DHT22;2201;51.100;6.814;2023-02-12T03:43:32;7.20;98.20
4374;DHT22;2201;51.100;6.814;2023-02-12T03:46:07;7.20;98.20
4374;DHT22;2201;51.100;6.814;2023-02-12T03:48:42;7.20;98.20
4374;DHT22;2201;51.100;6.814;2023-02-12T03:51:15;7.20;98.20
4374;DHT22;2201;51.100;6.814;2023-02-12T03:53:44;7.20;98.20
4374;DHT22;2201;51.100;6.814;2023-02-12T03:56:14;7.20;98.20
4374;DHT22;2201;51.100;6.814;2023-02-12T03:58:44;7.20;98.20
4374;DHT22;2201;51.100;6.814;2023-02-12T04:01:12;7.20;98.20
4374;DHT22;2201;51.100;6.814;2023-02-12T04:03:40;7.20;98.20
4374;DHT22;2201;51.100;6.814;2023-02-12T04:06:18;7.20;98.20
4374;DHT22;2201;51.100;6.814;2023-02-12T04:08:46;7.20;98.20
4374;DHT22;2201;51.100;6.814;2023-02-12T04:11:24;7.20;98.20
4374;DHT22;2201;51.100;6.814;2023-02-12T04:14:06;7.20;98.20
4374;DHT22;2201;51.100;6.814;2023-02-12T04:16:40;7.20;98.20
4374;DHT22;2201;51.100;6.814;2023-02-12T04:19:14;7.20;98.20
4374;DHT22;2201;51.100;6.814;2023-02-12T04:21:52;7.20;98.20
4374;DHT22;2201;51.100;6.814;2023-02-12T04:24:27;7.20;98.20
4374;DHT22;2201;51.100;6.814;2023-02-12T04:27:01;7.20;98.20
4374;DHT22;2201;51.100;6.814;2023-02-12T04:29:33;7.20;98.20
4374;DHT22;2201;51.100;6.814;2023-02-12T04:32:11;7.20;98.20
4374;DHT22;2201;51.100;6.814;2023-02-12T04:34:46;7.20;98.20
4374;DHT22;2201;51.100;6.814;2023-02-12T04:37:20;7.20;98.20
4374;DHT22;2201;51.100;6.814;2023-02-12T04:39:48;7.20;98.20
4374;DHT22;2201;51.100;6.814;2023-02-12T04:42:16;7.20;98.20
4374;DHT22;2201;51.100;6.814;2023-02-12T04:44:44;7.20;98.20
4374;DHT22;2201;51.100;6.814;2023-02-12T04:47:11;7.20;98.20
4374;DHT22;2201;51.100;6.814;2023-02-12T04:49:39;7.20;98.20
4374;DHT22;2201;51.100;6.814;2023-02-12T04:52:08;7.20;98.20
4374;DHT22;2201;51.100;6.814;2023-02-12T04:54:35;7.20;98.20
4374;DHT22;2201;51.100;6.814;2023-02-12T04:57:02;7.20;98.20
4374;DHT22;2201;51.100;6.814;2023-02-12T04:59:29;7.20;98.20
4374;DHT22;2201;51.100;6.814;2023-02-12T05:01:56;7.20;98.20
4374;DHT22;2201;51.100;6.814;2023-02-12T05:04:23;7.20;98.20
4374;DHT22;2201;51.100;6.814;2023-02-12T05:06:50;7.20;98.20
4374;DHT22;2201;51.100;6.814;2023-02-12T05:09:19;7.20;98.20
4374;DHT22;2201;51.100;6.814;2023-02-12T05:11:46;7.20;98.20
4374;DHT22;2201;51.100;6.814;2023-02-12T05:14:14;7.20;98.20
4374;DHT22;2201;51.100;6.814;2023-02-12T05:16:41;7.20;98.20
4374;DHT22;2201;51.100;6.814;2023-02-12T05:19:08;7.20;98.20
4374;DHT22;2201;51.100;6.814;2023-02-12T05:21:35;7.20;98.20
4374;DHT22;2201;51.100;6.814;2023-02-12T05:24:03;7.20;98.20
4374;DHT22;2201;51.100;6.814;2023-02-12T05:26:31;7.20;98.20
4374;DHT22;2201;51.100;6.814;2023-02-12T05:28:58;7.20;98.20
4374;DHT22;2201;51.100;6.814;2023-02-12T05:31:25;7.20;98.20
4374;DHT22;2201;51.100;6.814;2023-02-12T05:33:52;7.20;98.20
4374;DHT22;2201;51.100;6.814;2023-02-12T05:36:20;7.20;98.20
4374;DHT22;2201;51.100;6.814;2023-02-12T05:38:50;7.20;98.20
4374;DHT22;2201;51.100;6.814;2023-02-12T05:41:19;7.20;98.20
4374;DHT22;2201;51.100;6.814;2023-02-12T05:43:48;7.20;98.20
4374;DHT22;2201;51.100;6.814;2023-02-12T05:46:16;7.20;98.20
4374;DHT22;2201;51.100;6.814;2023-02-12T05:48:43;7.20;98.20
4374;DHT22;2201;51.100;6.814;2023-02-12T05:51:12;7.20;98.20
4374;DHT22;2201;51.100;6.814;2023-02-12T05:53:40;7.20;98.20
4374;DHT22;2201;51.100;6.814;2023-02-12T05:56:08;7.20;98.20
4374;DHT22;2201;51.100;6.814;2023-02-12T05:58:36;7.20;98.20
4374;DHT22;2201;51.100;6.814;2023-02-12T06:01:09;7.20;98.20
4374;DHT22;2201;51.100;6.814;2023-02-12T06:03:36;7.20;98.20
4374;DHT22;2201;51.100;6.814;2023-02-12T06:06:04;7.20;98.20
4374;DHT22;2201;51.100;6.814;2023-02-12T06:08:31;7.20;98.20
4374;DHT22;2201;51.100;6.814;2023-02-12T06:11:00;7.20;98.20
4374;DHT22;2201;51.100;6.814;2023-02-12T06:13:28;7.20;98.20
4374;DHT22;2201;51.100;6.814;2023-02-12T06:15:55;7.20;98.20
4374;DHT22;2201;51.100;6.814;2023-02-12T06:18:23;7.20;98.20
4374;DHT22;2201;51.100;6.814;2023-02-12T06:20:51;7.10;98.20
4374;DHT22;2201;51.100;6.814;2023-02-12T06:23:19;7.10;98.20
4374;DHT22;2201;51.100;6.814;2023-02-12T06:25:46;7.10;98.20
4374;DHT22;2201;51.100;6.814;2023-02-12T06:28:13;7.10;98.20
4374;DHT22;2201;51.100;6.814;2023-02-12T06:30:40;7.10;98.20
4374;DHT22;2201;51.100;6.814;2023-02-12T06:33:07;7.10;98.20
4374;DHT22;2201;51.100;6.814;2023-02-12T06:35:35;7.10;98.20
4374;DHT22;2201;51.100;6.814;2023-02-12T06:38:06;7.10;98.20
4374;DHT22;2201;51.100;6.814;2023-02-12T06:40:34;7.10;98.20
4374;DHT22;2201;51.100;6.814;2023-02-12T06:43:01;7.10;98.20
4374;DHT22;2201;51.100;6.814;2023-02-12T06:45:28;7.10;98.20
4374;DHT22;2201;51.100;6.814;2023-02-12T06:47:56;7.10;98.20
4374;DHT22;2201;51.100;6.814;2023-02-12T06:50:23;7.10;98.20
4374;DHT22;2201;51.100;6.814;2023-02-12T06:52:52;7.10;98.20
4374;DHT22;2201;51.100;6.814;2023-02-12T06:55:19;7.10;98.20
4374;DHT22;2201;51.100;6.814;2023-02-12T06:57:46;7.10;98.20
4374;DHT22;2201;51.100;6.814;2023-02-12T07:00:13;7.10;98.20
4374;DHT22;2201;51.100;6.814;2023-02-12T07:02:40;7.10;98.20
4374;DHT22;2201;51.100;6.814;2023-02-12T07:05:08;7.10;98.20
4374;DHT22;2201;51.100;6.814;2023-02-12T07:07:35;7.10;98.20
4374;DHT22;2201;51.100;6.814;2023-02-12T07:10:04;7.10;98.20
4374;DHT22;2201;51.100;6.814;2023-02-12T07:12:32;7.10;98.20
4374;DHT22;2201;51.100;6.814;2023-02-12T07:14:59;7.10;98.20
4374;DHT22;2201;51.100;6.814;2023-02-12T07:17:28;7.10;98.20
4374;DHT22;2201;51.100;6.814;2023-02-12T07:19:55;7.20;98.20
4374;DHT22;2201;51.100;6.814;2023-02-12T07:22:22;7.20;98.20
4374;DHT22;2201;51.100;6.814;2023-02-12T07:24:50;7.20;98.20
4374;DHT22;2201;51.100;6.814;2023-02-12T07:27:18;7.20;98.20
4374;DHT22;2201;51.100;6.814;2023-02-12T07:29:46;7.20;98.20
4374;DHT22;2201;51.100;6.814;2023-02-12T07:32:13;7.20;98.20
4374;DHT22;2201;51.100;6.814;2023-02-12T07:34:40;7.20;98.20
4374;DHT22;2201;51.100;6.814;2023-02-12T07:37:07;7.20;98.20
4374;DHT22;2201;51.100;6.814;2023-02-12T07:39:34;7.30;98.20
4374;DHT22;2201;51.100;6.814;2023-02-12T07:42:02;7.20;98.20
4374;DHT22;2201;51.100;6.814;2023-02-12T07:44:31;7.20;98.20
4374;DHT22;2201;51.100;6.814;2023-02-12T07:46:59;7.30;98.20
4374;DHT22;2201;51.100;6.814;2023-02-12T07:49:27;7.30;98.20
4374;DHT22;2201;51.100;6.814;2023-02-12T07:51:56;7.30;98.20
4374;DHT22;2201;51.100;6.814;2023-02-12T07:54:23;7.30;98.20
4374;DHT22;2201;51.100;6.814;2023-02-12T07:56:51;7.40;98.20
4374;DHT22;2201;51.100;6.814;2023-02-12T07:59:18;7.40;98.20
4374;DHT22;2201;51.100;6.814;2023-02-12T08:01:48;7.50;98.20
4374;DHT22;2201;51.100;6.814;2023-02-12T08:04:17;7.50;98.20
4374;DHT22;2201;51.100;6.814;2023-02-12T08:06:46;7.50;98.20
4374;DHT22;2201;51.100;6.814;2023-02-12T08:09:15;7.50;98.20
4374;DHT22;2201;51.100;6.814;2023-02-12T08:11:43;7.50;98.20
4374;DHT22;2201;51.100;6.814;2023-02-12T08:14:11;7.60;98.20
4374;DHT22;2201;51.100;6.814;2023-02-12T08:16:40;7.60;98.20
4374;DHT22;2201;51.100;6.814;2023-02-12T08:19:09;7.60;98.20
4374;DHT22;2201;51.100;6.814;2023-02-12T08:21:37;7.60;98.20
4374;DHT22;2201;51.100;6.814;2023-02-12T08:24:04;7.70;98.20
4374;DHT22;2201;51.100;6.814;2023-02-12T08:26:34;7.70;98.20
4374;DHT22;2201;51.100;6.814;2023-02-12T08:29:05;7.70;98.20
4374;DHT22;2201;51.100;6.814;2023-02-12T08:31:34;7.70;98.20
4374;DHT22;2201;51.100;6.814;2023-02-12T08:34:02;7.70;98.20
4374;DHT22;2201;51.100;6.814;2023-02-12T08:36:35;7.80;98.20
4374;DHT22;2201;51.100;6.814;2023-02-12T08:39:03;7.80;98.20
4374;DHT22;2201;51.100;6.814;2023-02-12T08:41:32;7.80;98.20
4374;DHT22;2201;51.100;6.814;2023-02-12T08:44:00;7.90;98.20
4374;DHT22;2201;51.100;6.814;2023-02-12T08:46:28;7.90;98.20
4374;DHT22;2201;51.100;6.814;2023-02-12T08:48:57;7.90;98.20
4374;DHT22;2201;51.100;6.814;2023-02-12T08:51:26;7.90;98.20
4374;DHT22;2201;51.100;6.814;2023-02-12T08:53:57;8.00;98.20
4374;DHT22;2201;51.100;6.814;2023-02-12T08:56:25;8.00;98.20
4374;DHT22;2201;51.100;6.814;2023-02-12T08:58:53;8.10;98.20
4374;DHT22;2201;51.100;6.814;2023-02-12T09:01:23;8.10;98.20
4374;DHT22;2201;51.100;6.814;2023-02-12T09:03:52;8.10;98.20
4374;DHT22;2201;51.100;6.814;2023-02-12T09:06:21;8.20;98.20
4374;DHT22;2201;51.100;6.814;2023-02-12T09:08:51;8.20;98.20
4374;DHT22;2201;51.100;6.814;2023-02-12T09:11:22;8.30;98.20
4374;DHT22;2201;51.100;6.814;2023-02-12T09:13:55;8.30;98.20
4374;DHT22;2201;51.100;6.814;2023-02-12T09:16:23;8.40;98.20
4374;DHT22;2201;51.100;6.814;2023-02-12T09:18:51;8.40;98.20
4374;DHT22;2201;51.100;6.814;2023-02-12T09:21:21;8.40;98.20
4374;DHT22;2201;51.100;6.814;2023-02-12T09:23:51;8.50;98.20
4374;DHT22;2201;51.100;6.814;2023-02-12T09:26:22;8.50;98.20
4374;DHT22;2201;51.100;6.814;2023-02-12T09:28:51;8.60;98.20
4374;DHT22;2201;51.100;6.814;2023-02-12T09:31:22;8.60;98.20
4374;DHT22;2201;51.100;6.814;2023-02-12T09:33:51;8.70;98.20
4374;DHT22;2201;51.100;6.814;2023-02-12T09:36:21;8.70;98.20
4374;DHT22;2201;51.100;6.814;2023-02-12T09:38:49;8.70;98.20
4374;DHT22;2201;51.100;6.814;2023-02-12T09:41:56;8.80;98.20
4374;DHT22;2201;51.100;6.814;2023-02-12T09:44:35;8.80;98.20
4374;DHT22;2201;51.100;6.814;2023-02-12T09:47:10;8.80;98.20
4374;DHT22;2201;51.100;6.814;2023-02-12T09:50:04;8.90;98.20
4374;DHT22;2201;51.100;6.814;2023-02-12T09:52:40;8.90;98.20
4374;DHT22;2201;51.100;6.814;2023-02-12T09:55:14;8.90;98.20
4374;DHT22;2201;51.100;6.814;2023-02-12T09:57:46;8.90;98.20
4374;DHT22;2201;51.100;6.814;2023-02-12T10:00:20;9.00;98.20
4374;DHT22;2201;51.100;6.814;2023-02-12T10:02:51;9.00;98.20
4374;DHT22;2201;51.100;6.814;2023-02-12T10:05:26;9.10;98.20
4374;DHT22;2201;51.100;6.814;2023-02-12T10:08:17;9.10;98.20
4374;DHT22;2201;51.100;6.814;2023-02-12T10:13:38;9.20;98.20
4374;DHT22;2201;51.100;6.814;2023-02-12T10:16:13;9.20;98.20
4374;DHT22;2201;51.100;6.814;2023-02-12T10:19:03;9.20;98.20
4374;DHT22;2201;51.100;6.814;2023-02-12T10:21:45;9.30;98.20
4374;DHT22;2201;51.100;6.814;2023-02-12T10:24:35;9.40;98.20
4374;DHT22;2201;51.100;6.814;2023-02-12T10:27:13;9.50;98.20
4374;DHT22;2201;51.100;6.814;2023-02-12T10:29:44;9.60;98.20
4374;DHT22;2201;51.100;6.814;2023-02-12T10:32:18;9.70;98.20
4374;DHT22;2201;51.100;6.814;2023-02-12T10:34:50;9.80;98.20
4374;DHT22;2201;51.100;6.814;2023-02-12T10:37:25;9.90;98.20
4374;DHT22;2201;51.100;6.814;2023-02-12T10:39:57;9.90;98.20
4374;DHT22;2201;51.100;6.814;2023-02-12T10:42:35;10.00;98.20
4374;DHT22;2201;51.100;6.814;2023-02-12T10:45:12;10.10;98.20
4374;DHT22;2201;51.100;6.814;2023-02-12T10:47:41;10.10;98.20
4374;DHT22;2201;51.100;6.814;2023-02-12T10:50:18;10.10;98.20
4374;DHT22;2201;51.100;6.814;2023-02-12T10:52:48;10.10;98.20
4374;DHT22;2201;51.100;6.814;2023-02-12T10:55:26;10.10;98.20
4374;DHT22;2201;51.100;6.814;2023-02-12T10:57:54;10.10;98.20
4374;DHT22;2201;51.100;6.814;2023-02-12T11:00:26;10.10;98.20
4374;DHT22;2201;51.100;6.814;2023-02-12T11:03:04;10.20;98.20
4374;DHT22;2201;51.100;6.814;2023-02-12T11:05:34;10.20;98.20
4374;DHT22;2201;51.100;6.814;2023-02-12T11:08:03;10.30;98.20
4374;DHT22;2201;51.100;6.814;2023-02-12T11:10:36;10.30;98.20
4374;DHT22;2201;51.100;6.814;2023-02-12T11:13:04;10.40;98.20
4374;DHT22;2201;51.100;6.814;2023-02-12T11:15:36;10.50;98.20
4374;DHT22;2201;51.100;6.814;2023-02-12T11:18:06;10.70;98.20
4374;DHT22;2201;51.100;6.814;2023-02-12T11:20:37;10.70;98.20
4374;DHT22;2201;51.100;6.814;2023-02-12T11:23:20;10.70;98.20
4374;DHT22;2201;51.100;6.814;2023-02-12T11:25:55;10.70;98.20
4374;DHT22;2201;51.100;6.814;2023-02-12T11:28:23;10.80;98.20
4374;DHT22;2201;51.100;6.814;2023-02-12T11:30:54;10.80;98.20
4374;DHT22;2201;51.100;6.814;2023-02-12T11:33:29;10.90;98.20
4374;DHT22;2201;51.100;6.814;2023-02-12T11:35:58;10.90;98.20
4374;DHT22;2201;51.100;6.814;2023-02-12T11:38:32;10.90;98.20
4374;DHT22;2201;51.100;6.814;2023-02-12T11:41:20;10.90;98.20
4374;DHT22;2201;51.100;6.814;2023-02-12T11:43:50;11.00;98.20
4374;DHT22;2201;51.100;6.814;2023-02-12T11:46:21;11.00;98.20
4374;DHT22;2201;51.100;6.814;2023-02-12T11:48:50;11.00;98.20
4374;DHT22;2201;51.100;6.814;2023-02-12T11:51:21;11.00;98.20
4374;DHT22;2201;51.100;6.814;2023-02-12T11:53:52;11.00;98.20
4374;DHT22;2201;51.100;6.814;2023-02-12T11:56:20;11.10;98.20
4374;DHT22;2201;51.100;6.814;2023-02-12T11:58:48;11.00;98.20
4374;DHT22;2201;51.100;6.814;2023-02-12T12:01:21;11.00;98.20
4374;DHT22;2201;51.100;6.814;2023-02-12T12:03:56;10.90;98.20
4374;DHT22;2201;51.100;6.814;2023-02-12T12:06:33;11.00;98.20
4374;DHT22;2201;51.100;6.814;2023-02-12T12:09:05;11.00;98.20
4374;DHT22;2201;51.100;6.814;2023-02-12T12:11:39;11.00;98.20
4374;DHT22;2201;51.100;6.814;2023-02-12T12:14:14;11.00;98.20
4374;DHT22;2201;51.100;6.814;2023-02-12T12:16:50;10.90;98.20
4374;DHT22;2201;51.100;6.814;2023-02-12T12:19:44;10.90;98.20
4374;DHT22;2201;51.100;6.814;2023-02-12T12:22:39;10.90;98.20
4374;DHT22;2201;51.100;6.814;2023-02-12T12:25:15;10.90;98.20
4374;DHT22;2201;51.100;6.814;2023-02-12T12:28:00;11.00;98.20
4374;DHT22;2201;51.100;6.814;2023-02-12T12:30:57;11.00;98.20
4374;DHT22;2201;51.100;6.814;2023-02-12T12:33:39;10.90;98.20
4374;DHT22;2201;51.100;6.814;2023-02-12T12:36:35;11.00;98.20
4374;DHT22;2201;51.100;6.814;2023-02-12T12:39:21;10.90;98.20
4374;DHT22;2201;51.100;6.814;2023-02-12T12:42:16;10.90;98.20
4374;DHT22;2201;51.100;6.814;2023-02-12T12:45:15;10.80;98.20
4374;DHT22;2201;51.100;6.814;2023-02-12T12:48:01;10.90;98.20
4374;DHT22;2201;51.100;6.814;2023-02-12T12:50:49;10.90;98.20
4374;DHT22;2201;51.100;6.814;2023-02-12T12:53:35;11.00;98.20
4374;DHT22;2201;51.100;6.814;2023-02-12T12:56:34;11.00;98.20
4374;DHT22;2201;51.100;6.814;2023-02-12T12:59:36;11.00;98.20
4374;DHT22;2201;51.100;6.814;2023-02-12T13:05:53;11.10;98.20
4374;DHT22;2201;51.100;6.814;2023-02-12T13:08:51;11.10;98.20
4374;DHT22;2201;51.100;6.814;2023-02-12T13:11:40;11.10;98.20
4374;DHT22;2201;51.100;6.814;2023-02-12T13:14:30;11.10;98.20
4374;DHT22;2201;51.100;6.814;2023-02-12T13:17:12;11.10;98.20
4374;DHT22;2201;51.100;6.814;2023-02-12T13:19:56;11.10;98.20
4374;DHT22;2201;51.100;6.814;2023-02-12T13:22:38;11.10;98.20
4374;DHT22;2201;51.100;6.814;2023-02-12T13:25:22;11.10;98.20
4374;DHT22;2201;51.100;6.814;2023-02-12T13:27:56;11.10;98.20
4374;DHT22;2201;51.100;6.814;2023-02-12T13:30:35;11.20;98.20
4374;DHT22;2201;51.100;6.814;2023-02-12T13:33:14;11.20;98.20
4374;DHT22;2201;51.100;6.814;2023-02-12T13:35:52;11.10;98.20
4374;DHT22;2201;51.100;6.814;2023-02-12T13:38:31;11.10;98.20
4374;DHT22;2201;51.100;6.814;2023-02-12T13:41:09;11.10;98.20
4374;DHT22;2201;51.100;6.814;2023-02-12T13:43:52;11.10;98.20
4374;DHT22;2201;51.100;6.814;2023-02-12T13:46:37;11.10;98.20
4374;DHT22;2201;51.100;6.814;2023-02-12T13:49:21;11.10;98.20
4374;DHT22;2201;51.100;6.814;2023-02-12T13:51:58;11.10;98.20
4374;DHT22;2201;51.100;6.814;2023-02-12T13:54:53;11.10;98.20
4374;DHT22;2201;51.100;6.814;2023-02-12T13:57:27;11.10;98.20
4374;DHT22;2201;51.100;6.814;2023-02-12T13:59:58;11.20;98.20
4374;DHT22;2201;51.100;6.814;2023-02-12T14:02:46;11.20;98.20
4374;DHT22;2201;51.100;6.814;2023-02-12T14:05:30;11.10;98.20
4374;DHT22;2201;51.100;6.814;2023-02-12T14:08:04;11.10;98.20
4374;DHT22;2201;51.100;6.814;2023-02-12T14:10:40;11.10;98.20
4374;DHT22;2201;51.100;6.814;2023-02-12T14:13:17;11.20;98.20
4374;DHT22;2201;51.100;6.814;2023-02-12T14:15:51;11.20;98.20
4374;DHT22;2201;51.100;6.814;2023-02-12T14:18:27;11.10;98.20
4374;DHT22;2201;51.100;6.814;2023-02-12T14:27:43;11.10;98.20
4374;DHT22;2201;51.100;6.814;2023-02-12T14:30:35;11.10;98.20
4374;DHT22;2201;51.100;6.814;2023-02-12T14:33:21;11.00;98.20
4374;DHT22;2201;51.100;6.814;2023-02-12T14:36:18;11.10;98.20
4374;DHT22;2201;51.100;6.814;2023-02-12T14:39:01;11.10;98.20
4374;DHT22;2201;51.100;6.814;2023-02-12T14:41:37;11.00;98.20
4374;DHT22;2201;51.100;6.814;2023-02-12T14:44:49;11.00;98.20
4374;DHT22;2201;51.100;6.814;2023-02-12T14:50:40;11.00;98.20
4374;DHT22;2201;51.100;6.814;2023-02-12T14:53:28;11.00;98.20
4374;DHT22;2201;51.100;6.814;2023-02-12T14:56:04;11.00;98.20
4374;DHT22;2201;51.100;6.814;2023-02-12T14:58:36;11.00;98.20
4374;DHT22;2201;51.100;6.814;2023-02-12T15:01:13;10.90;98.20
4374;DHT22;2201;51.100;6.814;2023-02-12T15:03:49;10.90;98.20
4374;DHT22;2201;51.100;6.814;2023-02-12T15:06:26;10.90;98.20
4374;DHT22;2201;51.100;6.814;2023-02-12T15:09:09;10.90;98.20
4374;DHT22;2201;51.100;6.814;2023-02-12T15:11:44;10.90;98.20
4374;DHT22;2201;51.100;6.814;2023-02-12T15:14:18;10.90;98.20
4374;DHT22;2201;51.100;6.814;2023-02-12T15:16:54;10.90;98.20
4374;DHT22;2201;51.100;6.814;2023-02-12T15:19:37;10.90;98.20
4374;DHT22;2201;51.100;6.814;2023-02-12T15:22:19;10.90;98.20
4374;DHT22;2201;51.100;6.814;2023-02-12T15:24:50;10.80;98.20
4374;DHT22;2201;51.100;6.814;2023-02-12T15:27:20;10.80;98.20
4374;DHT22;2201;51.100;6.814;2023-02-12T15:29:51;10.80;98.20
4374;DHT22;2201;51.100;6.814;2023-02-12T15:32:26;10.80;98.20
4374;DHT22;2201;51.100;6.814;2023-02-12T15:34:57;10.80;98.20
4374;DHT22;2201;51.100;6.814;2023-02-12T15:37:29;10.70;98.20
4374;DHT22;2201;51.100;6.814;2023-02-12T15:40:03;10.70;98.20
4374;DHT22;2201;51.100;6.814;2023-02-12T15:42:36;10.70;98.20
4374;DHT22;2201;51.100;6.814;2023-02-12T15:45:19;10.70;98.20
4374;DHT22;2201;51.100;6.814;2023-02-12T15:48:02;10.70;98.20
4374;DHT22;2201;51.100;6.814;2023-02-12T15:50:35;10.70;98.20
4374;DHT22;2201;51.100;6.814;2023-02-12T15:53:16;10.60;98.20
4374;DHT22;2201;51.100;6.814;2023-02-12T15:55:48;10.60;98.20
4374;DHT22;2201;51.100;6.814;2023-02-12T15:58:21;10.60;98.20
4374;DHT22;2201;51.100;6.814;2023-02-12T16:00:53;10.60;98.20
4374;DHT22;2201;51.100;6.814;2023-02-12T16:03:26;10.60;98.20
4374;DHT22;2201;51.100;6.814;2023-02-12T16:06:02;10.50;98.20
4374;DHT22;2201;51.100;6.814;2023-02-12T16:08:34;10.50;98.20
4374;DHT22;2201;51.100;6.814;2023-02-12T16:11:05;10.50;98.20
4374;DHT22;2201;51.100;6.814;2023-02-12T16:13:43;10.50;98.20
4374;DHT22;2201;51.100;6.814;2023-02-12T16:16:18;10.50;98.20
4374;DHT22;2201;51.100;6.814;2023-02-12T16:19:07;10.50;98.20
4374;DHT22;2201;51.100;6.814;2023-02-12T16:21:41;10.50;98.20
4374;DHT22;2201;51.100;6.814;2023-02-12T16:24:30;10.50;98.20
4374;DHT22;2201;51.100;6.814;2023-02-12T16:27:06;10.50;98.20
4374;DHT22;2201;51.100;6.814;2023-02-12T16:29:38;10.40;98.20
4374;DHT22;2201;51.100;6.814;2023-02-12T16:32:27;10.40;98.20
4374;DHT22;2201;51.100;6.814;2023-02-12T16:35:05;10.30;98.20
4374;DHT22;2201;51.100;6.814;2023-02-12T16:37:43;10.30;98.20
4374;DHT22;2201;51.100;6.814;2023-02-12T16:40:33;10.30;98.20
4374;DHT22;2201;51.100;6.814;2023-02-12T16:43:13;10.30;98.20
4374;DHT22;2201;51.100;6.814;2023-02-12T16:45:48;10.20;98.20
4374;DHT22;2201;51.100;6.814;2023-02-12T16:48:21;10.20;98.20
4374;DHT22;2201;51.100;6.814;2023-02-12T16:50:55;10.20;98.20
4374;DHT22;2201;51.100;6.814;2023-02-12T16:53:38;10.20;98.20
4374;DHT22;2201;51.100;6.814;2023-02-12T16:56:16;10.10;98.20
4374;DHT22;2201;51.100;6.814;2023-02-12T16:58:47;10.10;98.20
4374;DHT22;2201;51.100;6.814;2023-02-12T17:01:19;10.10;98.20
4374;DHT22;2201;51.100;6.814;2023-02-12T17:03:47;10.10;98.20
4374;DHT22;2201;51.100;6.814;2023-02-12T17:06:18;10.10;98.20
4374;DHT22;2201;51.100;6.814;2023-02-12T17:08:47;10.00;98.20
4374;DHT22;2201;51.100;6.814;2023-02-12T17:11:14;10.00;98.20
4374;DHT22;2201;51.100;6.814;2023-02-12T17:13:43;10.00;98.20